Cave Junction, OR (97523)

7:03 PM PDT on October 21, 2014 (GMT -0700)
Oregon Builders Guild LLC 541-592-6014 | Change Station
CLOSE
Current Station
Personal Weather Station
Location: Cave Junction, OR
Elevation: 1332 ft
Nearby Weather Stations

Elev 1332 ft 42.16 °N, 123.65 °W | Updated 14 minutes ago

Mostly Cloudy
Mostly Cloudy
55.9 °F
Feels Like 55.9 °F
N
0.0
Wind Variable Wind from North

Today
High -- | Low -- °F
--% Chance of Precip.
Yesterday
High -- | Low -- °F
Precip. -- in
7:34 AM 6:23 PM
Waning Crescent, 3% visible
Pressure 30.03 in
Visibility 5.0 miles
Clouds Overcast 5000 ft
Dew Point 49 °F
Humidity 77%
Rainfall 0.55 in
Snow Depth 0 in
UV 0 out of 12
Pollen 1.20 out of 12
Air Quality Not available.
Flu Activity Sporadic
METAR KBOK 220156Z AUTO VRB05KT 5SM -RA BR OVC050 13/12 A3003 RMK AO2 T01330122 P0001 SLP169

More Conditions Fewer Conditions

Pressure 30.03 in
Visibility 5.0 miles
Clouds Overcast 5000 ft
Dew Point 49 °F
Humidity 77%
Rainfall 0.55 in
Snow Depth 0 in
UV 0 out of 12
Pollen 1.20 out of 12
Air Quality Not available.
Flu Activity Sporadic
METAR KBOK 220156Z AUTO VRB05KT 5SM -RA BR OVC050 13/12 A3003 RMK AO2 T01330122 P0001 SLP169

More Conditions Fewer Conditions

10-Day Weather Forecast

Almanac

Astronomy

Oct. 21, 2014 Rise Set
Actual Time 7:34 AM PDT 6:23 PM PDT
Civil Twilight 7:05 AM PDT 6:51 PM PDT
Nautical Twilight 6:33 AM PDT 7:24 PM PDT
Astronomical Twilight 6:00 AM PDT 7:56 PM PDT
Moon 5:21 AM PDT (10/21) 5:22 PM PDT (10/21)
Length of Visible Light 11h 45m
Length of Day
10h 49m
Tomorrow will be 2m 40s shorter.
Waning Crescent, 3% of the Moon is Illuminated
Today
Waning Crescent
Oct 23
New
Oct 30
First Quarter
Nov 6
Full
Nov 14
Last Quarter

Today's Extremes

State Highs State Lows

Community

WunderPhotos

Upload Photos

1,763,852 photos uploaded!

Nearby

Snow Depth

Station Depth Elevation
Bigelow Camp 0 in 5120 ft
King Mountain 0 in 4000 ft
Big Red Mountain 0 in 6250 ft
Fish Lake 0 in 4665 ft
Billie Creek Divide 0 in 5300 ft

Earthquake Activity

City Distance Mag. Time & Date
Crescent City, California 76 miles 2.6 1:22 AM PDT
2014-10-21
Rio Dell, California 135 miles 4.2 7:24 AM PDT
2014-10-19
Minimum magnitude displayed is 2.5.

Coastal Water Temperatures

Place Temperature
No Stations Reporting

Nearby Weather Stations